createdAt,value
2023-02-13T00:01:06.858Z,4.93
2023-02-13T00:03:34.956Z,5.38
2023-02-13T00:06:04.383Z,5.10
2023-02-13T00:08:32.236Z,5.28
2023-02-13T00:11:00.224Z,4.80
2023-02-13T00:13:28.442Z,4.38
2023-02-13T00:15:57.959Z,4.68
2023-02-13T00:18:25.816Z,5.20
2023-02-13T00:21:01.872Z,4.88
2023-02-13T00:23:33.019Z,4.70
2023-02-13T00:26:01.343Z,4.25
2023-02-13T00:28:29.202Z,5.63
2023-02-13T00:31:06.586Z,4.90
2023-02-13T00:33:34.891Z,5.28
2023-02-13T00:36:07.975Z,5.90
2023-02-13T00:38:38.625Z,5.13
2023-02-13T00:41:07.558Z,4.97
2023-02-13T00:43:36.522Z,5.15
2023-02-13T00:46:05.824Z,5.75
2023-02-13T00:48:35.876Z,5.30
2023-02-13T00:51:05.201Z,5.70
2023-02-13T00:53:33.757Z,5.45
2023-02-13T00:56:04.106Z,5.45
2023-02-13T00:58:32.498Z,6.18
2023-02-13T01:01:01.112Z,6.00
2023-02-13T01:03:29.812Z,5.57
2023-02-13T01:05:58.837Z,5.45
2023-02-13T01:08:28.406Z,6.00
2023-02-13T01:10:57.416Z,5.75
2023-02-13T01:13:27.840Z,5.57
2023-02-13T01:15:56.840Z,5.57
2023-02-13T01:18:25.022Z,5.38
2023-02-13T01:21:01.328Z,5.45
2023-02-13T01:23:32.151Z,5.63
2023-02-13T01:26:00.338Z,5.22
2023-02-13T01:28:29.750Z,5.57
2023-02-13T01:30:59.444Z,5.82
2023-02-13T01:33:29.354Z,5.97
2023-02-13T01:35:58.127Z,6.05
2023-02-13T01:38:26.027Z,5.93
2023-02-13T01:40:56.189Z,6.07
2023-02-13T01:43:25.689Z,5.93
2023-02-13T01:45:58.415Z,5.72
2023-02-13T01:48:30.335Z,5.45
2023-02-13T01:51:05.867Z,5.75
2023-02-13T01:53:39.720Z,6.07
2023-02-13T01:56:13.415Z,5.93
2023-02-13T02:01:17.488Z,5.45
2023-02-13T02:03:50.564Z,5.30
2023-02-13T02:06:24.951Z,5.60
2023-02-13T02:08:55.737Z,5.40
2023-02-13T02:11:31.796Z,5.78
2023-02-13T02:14:01.971Z,5.00
2023-02-13T02:16:35.291Z,4.90
2023-02-13T02:19:11.956Z,5.85
2023-02-13T02:22:01.275Z,5.68
2023-02-13T02:25:01.382Z,5.68
2023-02-13T02:27:54.427Z,5.55
2023-02-13T02:30:48.146Z,5.45
2023-02-13T02:33:34.569Z,5.82
2023-02-13T02:36:20.680Z,5.95
2023-02-13T02:39:07.526Z,5.15
2023-02-13T02:41:57.028Z,5.18
2023-02-13T02:44:34.827Z,5.22
2023-02-13T02:47:32.607Z,5.22
2023-02-13T02:50:17.440Z,5.13
2023-02-13T02:52:56.695Z,4.70
2023-02-13T02:55:36.900Z,5.07
2023-02-13T02:58:31.869Z,5.30
2023-02-13T03:01:20.829Z,5.07
2023-02-13T03:04:07.690Z,5.03
2023-02-13T03:06:41.889Z,4.72
2023-02-13T03:09:34.019Z,5.20
2023-02-13T03:12:20.558Z,5.10
2023-02-13T03:14:48.476Z,4.70
2023-02-13T03:17:37.133Z,4.63
2023-02-13T03:20:33.100Z,4.80
2023-02-13T03:23:14.935Z,4.53
2023-02-13T03:26:33.286Z,5.32
2023-02-13T03:29:28.355Z,4.65
2023-02-13T03:32:05.611Z,4.78
2023-02-13T03:34:52.094Z,5.68
2023-02-13T03:37:43.745Z,5.03
2023-02-13T03:40:18.825Z,5.00
2023-02-13T03:42:52.931Z,5.00
2023-02-13T03:45:42.766Z,5.85
2023-02-13T03:48:32.540Z,5.22
2023-02-13T03:51:02.168Z,5.10
2023-02-13T03:53:33.703Z,5.20
2023-02-13T03:56:22.202Z,5.00
2023-02-13T03:59:11.833Z,5.20
2023-02-13T04:01:40.706Z,5.25
2023-02-13T04:04:14.120Z,5.20
2023-02-13T04:06:51.204Z,5.25
2023-02-13T04:09:19.760Z,5.20
2023-02-13T04:11:57.253Z,5.35
2023-02-13T04:14:29.281Z,5.55
2023-02-13T04:17:03.464Z,5.80
2023-02-13T04:19:33.160Z,5.82
2023-02-13T04:22:03.292Z,5.88
2023-02-13T04:24:31.472Z,5.82
2023-02-13T04:27:00.859Z,5.72
2023-02-13T04:29:28.729Z,5.50
2023-02-13T04:31:56.584Z,5.50
2023-02-13T04:34:24.458Z,6.35
2023-02-13T04:36:52.223Z,5.75
2023-02-13T04:39:20.316Z,6.20
2023-02-13T04:41:48.089Z,5.50
2023-02-13T04:44:17.195Z,5.50
2023-02-13T04:46:44.950Z,5.32
2023-02-13T04:49:12.960Z,5.50
2023-02-13T04:51:40.691Z,5.40
2023-02-13T04:54:08.765Z,6.18
2023-02-13T04:56:36.575Z,5.75
2023-02-13T04:59:04.504Z,5.15
2023-02-13T05:01:33.705Z,5.63
2023-02-13T05:04:01.564Z,6.00
2023-02-13T05:06:29.352Z,6.25
2023-02-13T05:08:57.335Z,5.97
2023-02-13T05:11:25.132Z,5.75
2023-02-13T05:13:52.948Z,6.35
2023-02-13T05:16:20.697Z,5.63
2023-02-13T05:18:49.883Z,6.28
2023-02-13T05:21:35.040Z,6.43
2023-02-13T05:24:02.837Z,6.28
2023-02-13T05:26:30.550Z,6.53
2023-02-13T05:29:15.838Z,6.75
2023-02-13T05:31:43.881Z,6.57
2023-02-13T05:34:13.699Z,6.63
2023-02-13T05:36:41.529Z,6.75
2023-02-13T05:39:09.822Z,6.47
2023-02-13T05:41:37.701Z,6.50
2023-02-13T05:44:05.785Z,7.22
2023-02-13T05:46:33.879Z,6.70
2023-02-13T05:49:04.540Z,6.63
2023-02-13T05:51:34.234Z,7.07
2023-02-13T05:54:02.137Z,6.82
2023-02-13T05:56:30.397Z,7.03
2023-02-13T05:58:58.677Z,7.25
2023-02-13T06:01:26.546Z,6.63
2023-02-13T06:03:54.451Z,6.63
2023-02-13T06:06:22.770Z,7.20
2023-02-13T06:08:52.027Z,7.28
2023-02-13T06:11:19.931Z,6.75
2023-02-13T06:13:47.886Z,6.72
2023-02-13T06:16:15.652Z,6.80
2023-02-13T06:18:43.519Z,6.60
2023-02-13T06:21:11.641Z,7.32
2023-02-13T06:23:39.388Z,6.80
2023-02-13T06:26:09.655Z,7.30
2023-02-13T06:28:37.875Z,6.55
2023-02-13T06:31:06.404Z,6.97
2023-02-13T06:33:34.371Z,6.65
2023-02-13T06:36:02.182Z,7.50
2023-02-13T06:38:30.649Z,6.97
2023-02-13T06:41:02.303Z,6.63
2023-02-13T06:43:31.575Z,7.25
2023-02-13T06:45:59.562Z,6.82
2023-02-13T06:48:27.414Z,7.30
2023-02-13T06:50:55.522Z,6.68
2023-02-13T06:53:24.987Z,7.05
2023-02-13T06:55:53.955Z,7.15
2023-02-13T06:58:21.869Z,6.85
2023-02-13T07:00:51.721Z,7.22
2023-02-13T07:03:19.784Z,6.38
2023-02-13T07:05:47.624Z,6.90
2023-02-13T07:08:15.406Z,6.50
2023-02-13T07:10:43.651Z,7.43
2023-02-13T07:13:13.431Z,6.55
2023-02-13T07:15:41.285Z,7.82
2023-02-13T07:18:10.999Z,6.40
2023-02-13T07:20:38.717Z,6.55
2023-02-13T07:23:07.847Z,6.70
2023-02-13T07:25:36.137Z,7.03
2023-02-13T07:28:04.662Z,6.90
2023-02-13T07:30:33.532Z,6.70
2023-02-13T07:33:02.334Z,6.90
2023-02-13T07:35:32.083Z,7.55
2023-02-13T07:38:00.453Z,6.25
2023-02-13T07:40:28.549Z,6.63
2023-02-13T07:42:56.848Z,6.97
2023-02-13T07:45:24.789Z,7.25
2023-02-13T07:47:52.660Z,6.93
2023-02-13T07:50:20.680Z,6.85
2023-02-13T07:52:55.600Z,6.30
2023-02-13T07:55:23.828Z,6.88
2023-02-13T07:57:52.085Z,7.60
2023-02-13T08:00:21.024Z,6.90
2023-02-13T08:02:48.867Z,6.72
2023-02-13T08:05:16.832Z,6.93
2023-02-13T08:07:44.582Z,6.40
2023-02-13T08:10:32.555Z,6.20
2023-02-13T08:13:00.926Z,6.85
2023-02-13T08:15:28.977Z,6.90
2023-02-13T08:17:56.691Z,6.85
2023-02-13T08:20:25.322Z,6.43
2023-02-13T08:22:53.163Z,6.75
2023-02-13T08:25:22.322Z,7.18
2023-02-13T08:27:50.158Z,6.93
2023-02-13T08:30:18.100Z,6.50
2023-02-13T08:32:54.334Z,6.22
2023-02-13T08:35:26.803Z,6.18
2023-02-13T08:37:54.717Z,6.20
2023-02-13T08:40:25.442Z,6.70
2023-02-13T08:42:54.653Z,6.93
2023-02-13T08:45:23.145Z,6.75
2023-02-13T08:47:50.924Z,7.13
2023-02-13T08:50:19.005Z,6.15
2023-02-13T08:52:46.811Z,6.82
2023-02-13T08:55:14.686Z,6.80
2023-02-13T08:57:43.978Z,6.78
2023-02-13T09:00:12.650Z,6.30
2023-02-13T09:02:40.386Z,6.28
2023-02-13T09:05:08.532Z,6.00
2023-02-13T09:07:36.430Z,6.15
2023-02-13T09:10:04.315Z,6.65
2023-02-13T09:12:32.120Z,6.15
2023-02-13T09:15:01.278Z,6.03
2023-02-13T09:17:29.013Z,6.18
2023-02-13T09:19:56.795Z,6.22
2023-02-13T09:22:24.661Z,6.40
2023-02-13T09:24:52.629Z,6.20
2023-02-13T09:27:20.563Z,5.88
2023-02-13T09:29:48.989Z,6.07
2023-02-13T09:32:18.158Z,5.90
2023-02-13T09:34:45.968Z,6.13
2023-02-13T09:37:13.868Z,5.47
2023-02-13T09:39:41.767Z,5.70
2023-02-13T09:42:20.682Z,6.13
2023-02-13T09:44:50.056Z,5.82
2023-02-13T09:47:29.339Z,5.95
2023-02-13T09:50:02.050Z,6.10
2023-02-13T09:52:34.154Z,5.70
2023-02-13T09:55:02.278Z,6.40
2023-02-13T09:57:34.620Z,5.13
2023-02-13T10:00:13.401Z,5.90
2023-02-13T10:03:01.160Z,5.47
2023-02-13T10:05:57.305Z,5.72
2023-02-13T10:08:42.503Z,5.85
2023-02-13T10:11:25.969Z,5.30
2023-02-13T10:14:07.781Z,5.05
2023-02-13T10:16:39.310Z,5.40
2023-02-13T10:19:18.044Z,5.05
2023-02-13T10:21:52.983Z,5.05
2023-02-13T10:24:31.083Z,5.40
2023-02-13T10:27:01.814Z,5.20
2023-02-13T10:29:57.191Z,5.70
2023-02-13T10:32:30.419Z,5.55
2023-02-13T10:35:04.429Z,4.88
2023-02-13T10:37:32.580Z,4.88
2023-02-13T10:40:00.355Z,5.10
2023-02-13T10:42:38.459Z,5.47
2023-02-13T10:45:29.968Z,5.28
2023-02-13T10:48:20.430Z,4.50
2023-02-13T10:51:00.727Z,4.57
2023-02-13T10:53:41.549Z,4.90
2023-02-13T10:56:31.890Z,5.18
2023-02-13T10:59:15.329Z,4.80
2023-02-13T11:01:50.977Z,4.18
2023-02-13T11:04:20.598Z,4.85
2023-02-13T11:06:56.874Z,5.13
2023-02-13T11:09:25.510Z,4.50
2023-02-13T11:11:54.440Z,4.13
2023-02-13T11:14:24.022Z,4.88
2023-02-13T11:16:56.712Z,4.28
2023-02-13T11:19:30.111Z,4.90
2023-02-13T11:22:04.109Z,4.53
2023-02-13T11:24:33.197Z,4.97
2023-02-13T11:27:05.785Z,4.05
2023-02-13T11:29:35.172Z,5.20
2023-02-13T11:32:19.574Z,4.25
2023-02-13T11:34:50.427Z,4.55
2023-02-13T11:37:23.800Z,4.20
2023-02-13T11:39:53.598Z,4.03
2023-02-13T11:42:28.640Z,4.00
2023-02-13T11:45:00.726Z,3.72
2023-02-13T11:47:41.086Z,4.22
2023-02-13T11:50:23.849Z,4.75
2023-02-13T11:52:59.423Z,4.60
2023-02-13T11:55:31.226Z,4.07
2023-02-13T11:58:01.803Z,4.40
2023-02-13T12:00:39.851Z,4.05
2023-02-13T12:03:29.061Z,4.05
2023-02-13T12:06:06.630Z,4.07
2023-02-13T12:08:37.904Z,3.80
2023-02-13T12:11:21.828Z,3.80
2023-02-13T12:13:51.460Z,3.88
2023-02-13T12:16:39.954Z,3.65
2023-02-13T12:19:13.113Z,3.58
2023-02-13T12:22:01.274Z,3.70
2023-02-13T12:24:47.740Z,3.50
2023-02-13T12:27:24.353Z,3.38
2023-02-13T12:30:15.221Z,3.67
2023-02-13T12:32:53.497Z,3.47
2023-02-13T12:35:40.655Z,3.33
2023-02-13T12:38:21.947Z,3.55
2023-02-13T12:41:15.268Z,3.47
2023-02-13T12:44:07.384Z,3.50
2023-02-13T12:46:41.648Z,3.38
2023-02-13T12:49:30.504Z,3.80
2023-02-13T12:52:17.368Z,3.28
2023-02-13T12:54:59.744Z,3.67
2023-02-13T12:57:45.145Z,3.28
2023-02-13T13:00:26.897Z,3.28
2023-02-13T13:03:11.214Z,3.78
2023-02-13T13:06:10.912Z,3.35
2023-02-13T13:08:56.356Z,3.42
2023-02-13T13:11:44.783Z,3.25
2023-02-13T13:14:25.447Z,3.25
2023-02-13T13:17:01.512Z,3.63
2023-02-13T13:19:37.730Z,3.20
2023-02-13T13:22:11.143Z,3.45
2023-02-13T13:24:54.751Z,3.10
2023-02-13T13:27:26.297Z,3.17
2023-02-13T13:29:59.165Z,3.10
2023-02-13T13:32:28.511Z,3.15
2023-02-13T13:34:57.635Z,3.00
2023-02-13T13:37:35.293Z,3.08
2023-02-13T13:40:20.591Z,2.78
2023-02-13T13:42:56.139Z,2.80
2023-02-13T13:45:35.626Z,3.40
2023-02-13T13:48:32.233Z,2.70
2023-02-13T13:51:00.809Z,3.13
2023-02-13T13:53:28.696Z,2.92
2023-02-13T13:56:08.515Z,2.95
2023-02-13T13:58:42.668Z,2.83
2023-02-13T14:01:24.138Z,2.92
2023-02-13T14:03:54.623Z,2.65
2023-02-13T14:06:26.142Z,2.90
2023-02-13T14:09:02.914Z,2.75
2023-02-13T14:11:42.312Z,3.10
2023-02-13T14:14:53.534Z,3.00
2023-02-13T14:17:54.694Z,2.88
2023-02-13T14:20:35.596Z,3.10
2023-02-13T14:23:19.956Z,2.90
2023-02-13T14:25:47.968Z,2.53
2023-02-13T14:28:24.653Z,2.25
2023-02-13T14:30:56.737Z,2.50
2023-02-13T14:33:29.205Z,2.80
2023-02-13T14:36:03.226Z,2.28
2023-02-13T14:38:32.219Z,2.45
2023-02-13T14:41:00.640Z,2.50
2023-02-13T14:43:32.341Z,2.30
2023-02-13T14:46:08.136Z,2.45
2023-02-13T14:48:44.417Z,2.50
2023-02-13T14:51:28.464Z,2.10
2023-02-13T14:54:00.421Z,2.08
2023-02-13T14:56:30.529Z,2.47
2023-02-13T14:59:07.899Z,2.25
2023-02-13T15:01:38.571Z,1.98
2023-02-13T15:04:13.713Z,2.22
2023-02-13T15:06:44.180Z,2.08
2023-02-13T15:09:23.021Z,1.80
2023-02-13T15:11:51.179Z,2.00
2023-02-13T15:14:21.886Z,1.95
2023-02-13T15:16:53.765Z,1.98
2023-02-13T15:19:24.647Z,2.47
2023-02-13T15:21:55.849Z,1.88
2023-02-13T15:24:24.845Z,2.10
2023-02-13T15:27:02.767Z,2.42
2023-02-13T15:29:44.211Z,1.92
2023-02-13T15:32:21.740Z,2.00
2023-02-13T15:37:23.153Z,1.50
2023-02-13T15:39:51.292Z,1.77
2023-02-13T15:42:19.094Z,1.75
2023-02-13T15:44:50.150Z,1.50
2023-02-13T15:47:23.512Z,1.60
2023-02-13T15:49:53.075Z,1.70
2023-02-13T15:52:27.192Z,1.42
2023-02-13T15:54:58.533Z,1.30
2023-02-13T15:57:27.912Z,1.52
2023-02-13T15:59:57.680Z,1.40
2023-02-13T16:02:35.626Z,1.75
2023-02-13T16:05:06.585Z,1.30
2023-02-13T16:07:49.064Z,1.30
2023-02-13T16:10:17.999Z,1.40
2023-02-13T16:12:49.819Z,1.20
2023-02-13T16:15:21.045Z,1.23
2023-02-13T16:17:49.764Z,1.15
2023-02-13T16:20:25.582Z,1.20
2023-02-13T16:22:56.160Z,1.23
2023-02-13T16:25:28.371Z,1.20
2023-02-13T16:27:58.418Z,1.10
2023-02-13T16:30:34.117Z,1.10
2023-02-13T16:33:29.418Z,1.20
2023-02-13T16:36:00.445Z,1.50
2023-02-13T16:38:31.579Z,1.30
2023-02-13T16:41:02.231Z,1.35
2023-02-13T16:43:38.579Z,1.20
2023-02-13T16:46:21.042Z,1.35
2023-02-13T16:49:05.729Z,1.40
2023-02-13T16:51:41.176Z,1.58
2023-02-13T16:54:20.215Z,1.55
2023-02-13T16:56:49.800Z,1.70
2023-02-13T16:59:49.450Z,1.60
2023-02-13T17:02:21.082Z,1.73
2023-02-13T17:04:52.327Z,1.70
2023-02-13T17:07:24.633Z,1.80
2023-02-13T17:09:57.686Z,1.90
2023-02-13T17:12:28.619Z,1.83
2023-02-13T17:14:57.962Z,1.83
2023-02-13T17:17:29.076Z,1.73
2023-02-13T17:19:56.901Z,1.88
2023-02-13T17:22:34.195Z,2.17
2023-02-13T17:25:04.917Z,2.05
2023-02-13T17:27:33.018Z,1.88
2023-02-13T17:30:01.054Z,1.95
2023-02-13T17:32:30.026Z,2.30
2023-02-13T17:34:58.008Z,2.05
2023-02-13T17:37:28.680Z,2.03
2023-02-13T17:39:56.959Z,2.30
2023-02-13T17:42:26.539Z,2.42
2023-02-13T17:44:55.451Z,1.90
2023-02-13T17:47:23.775Z,2.13
2023-02-13T17:49:55.156Z,2.15
2023-02-13T17:52:29.566Z,2.10
2023-02-13T17:54:57.471Z,1.85
2023-02-13T17:57:25.212Z,1.80
2023-02-13T17:59:53.078Z,2.03
2023-02-13T18:02:23.379Z,1.70
2023-02-13T18:04:51.773Z,2.20
2023-02-13T18:07:21.900Z,2.20
2023-02-13T18:09:51.325Z,1.80
2023-02-13T18:12:21.577Z,1.60
2023-02-13T18:14:49.975Z,1.77
2023-02-13T18:17:18.711Z,1.92
2023-02-13T18:19:47.191Z,1.95
2023-02-13T18:22:17.931Z,2.33
2023-02-13T18:24:45.815Z,2.08
2023-02-13T18:27:15.105Z,2.00
2023-02-13T18:29:42.906Z,2.17
2023-02-13T18:32:12.702Z,2.08
2023-02-13T18:34:41.189Z,2.03
2023-02-13T18:37:10.097Z,2.58
2023-02-13T18:39:37.930Z,2.40
2023-02-13T18:42:05.802Z,2.58
2023-02-13T18:44:35.242Z,2.15
2023-02-13T18:47:03.225Z,2.42
2023-02-13T18:49:31.132Z,3.00
2023-02-13T18:51:59.336Z,3.00
2023-02-13T18:54:27.222Z,2.95
2023-02-13T18:56:55.348Z,3.75
2023-02-13T18:59:23.612Z,3.55
2023-02-13T19:01:52.962Z,3.10
2023-02-13T19:04:20.829Z,3.10
2023-02-13T19:06:48.670Z,3.40
2023-02-13T19:09:16.673Z,2.90
2023-02-13T19:11:44.797Z,3.10
2023-02-13T19:14:15.042Z,3.00
2023-02-13T19:16:43.025Z,3.20
2023-02-13T19:19:12.395Z,3.20
2023-02-13T19:21:42.561Z,3.28
2023-02-13T19:24:15.330Z,3.22
2023-02-13T19:29:12.146Z,2.60
2023-02-13T19:31:40.165Z,3.00
2023-02-13T19:34:08.157Z,2.80
2023-02-13T19:36:37.450Z,3.03
2023-02-13T19:39:09.267Z,3.35
2023-02-13T19:41:37.439Z,3.17
2023-02-13T19:44:05.322Z,3.35
2023-02-13T19:46:34.033Z,3.08
2023-02-13T19:49:02.584Z,3.15
2023-02-13T19:51:32.489Z,3.45
2023-02-13T19:54:03.247Z,3.30
2023-02-13T19:56:31.947Z,3.08
2023-02-13T19:58:59.959Z,3.38
2023-02-13T20:01:29.772Z,3.17
2023-02-13T20:03:58.051Z,3.25
2023-02-13T20:06:27.836Z,3.15
2023-02-13T20:09:02.705Z,3.13
2023-02-13T20:11:30.875Z,3.17
2023-02-13T20:14:00.843Z,3.63
2023-02-13T20:16:32.920Z,3.55
2023-02-13T20:19:03.612Z,4.22
2023-02-13T20:21:33.083Z,3.22
2023-02-13T20:24:03.958Z,3.30
2023-02-13T20:26:32.301Z,3.65
2023-02-13T20:29:00.448Z,4.00
2023-02-13T20:31:30.124Z,3.72
2023-02-13T20:33:58.982Z,3.28
2023-02-13T20:36:29.155Z,3.42
2023-02-13T20:38:59.614Z,3.78
2023-02-13T20:41:31.376Z,3.75
2023-02-13T20:44:00.616Z,3.63
2023-02-13T20:46:30.731Z,3.72
2023-02-13T20:48:58.741Z,3.92
2023-02-13T20:51:26.817Z,3.35
2023-02-13T20:53:55.560Z,3.58
2023-02-13T20:56:25.173Z,3.47
2023-02-13T20:58:57.248Z,3.60
2023-02-13T21:01:28.148Z,3.50
2023-02-13T21:03:57.575Z,3.30
2023-02-13T21:06:28.332Z,3.35
2023-02-13T21:08:56.469Z,3.45
2023-02-13T21:11:25.307Z,3.38
2023-02-13T21:13:54.531Z,3.30
2023-02-13T21:16:24.842Z,3.38
2023-02-13T21:18:54.912Z,3.47
2023-02-13T21:21:24.042Z,3.92
2023-02-13T21:23:53.804Z,3.00
2023-02-13T21:26:22.407Z,3.50
2023-02-13T21:28:50.806Z,3.35
2023-02-13T21:31:23.737Z,3.28
2023-02-13T21:33:51.791Z,2.97
2023-02-13T21:36:19.564Z,3.15
2023-02-13T21:38:47.535Z,3.42
2023-02-13T21:41:17.413Z,3.55
2023-02-13T21:43:47.481Z,3.50
2023-02-13T21:46:17.112Z,3.33
2023-02-13T21:48:46.864Z,3.40
2023-02-13T21:51:16.836Z,3.45
2023-02-13T21:53:47.518Z,3.75
2023-02-13T21:56:17.555Z,3.55
2023-02-13T21:58:46.139Z,3.22
2023-02-13T22:01:25.441Z,3.58
2023-02-13T22:03:59.789Z,3.65
2023-02-13T22:06:29.745Z,4.53
2023-02-13T22:08:58.814Z,3.78
2023-02-13T22:11:27.460Z,4.40
2023-02-13T22:13:56.731Z,3.75
2023-02-13T22:16:25.400Z,4.28
2023-02-13T22:18:53.281Z,4.00
2023-02-13T22:21:24.701Z,3.80
2023-02-13T22:23:53.028Z,3.85
2023-02-13T22:26:23.310Z,4.30
2023-02-13T22:28:52.755Z,4.15
2023-02-13T22:31:24.893Z,4.45
2023-02-13T22:34:08.872Z,4.20
2023-02-13T22:36:40.205Z,4.07
2023-02-13T22:39:09.666Z,4.55
2023-02-13T22:41:37.850Z,4.38
2023-02-13T22:44:06.194Z,4.30
2023-02-13T22:46:35.145Z,3.90
2023-02-13T22:49:04.895Z,4.18
2023-02-13T22:51:34.790Z,3.80
2023-02-13T22:54:04.845Z,4.30
2023-02-13T22:56:33.252Z,4.03
2023-02-13T22:59:01.490Z,4.13
2023-02-13T23:01:30.923Z,3.97
2023-02-13T23:03:59.693Z,3.90
2023-02-13T23:06:28.524Z,3.65
2023-02-13T23:08:57.196Z,3.97
2023-02-13T23:11:45.529Z,3.97
2023-02-13T23:14:14.683Z,3.63
2023-02-13T23:17:00.810Z,3.97
2023-02-13T23:19:30.084Z,4.22
2023-02-13T23:21:58.187Z,4.93
2023-02-13T23:24:26.205Z,4.53
2023-02-13T23:26:55.513Z,4.43
2023-02-13T23:29:23.605Z,4.53
2023-02-13T23:31:51.627Z,4.70
2023-02-13T23:34:19.847Z,4.50
2023-02-13T23:36:47.748Z,4.93
2023-02-13T23:39:15.794Z,4.47
2023-02-13T23:41:43.735Z,4.07
2023-02-13T23:44:12.986Z,4.10
2023-02-13T23:46:41.083Z,4.20
2023-02-13T23:49:09.064Z,4.47
2023-02-13T23:51:40.021Z,4.05
2023-02-13T23:54:07.882Z,4.30
2023-02-13T23:56:35.874Z,4.43
2023-02-13T23:59:03.887Z,3.88
